createdAt,value
2023-05-03T00:01:41.378Z,5.20
2023-05-03T00:04:11.094Z,5.05
2023-05-03T00:06:40.652Z,5.50
2023-05-03T00:09:10.932Z,5.40
2023-05-03T00:11:40.515Z,4.75
2023-05-03T00:14:10.049Z,4.85
2023-05-03T00:16:42.280Z,4.75
2023-05-03T00:19:24.342Z,4.95
2023-05-03T00:22:00.379Z,4.57
2023-05-03T00:24:30.153Z,4.80
2023-05-03T00:26:59.686Z,4.50
2023-05-03T00:29:29.515Z,4.35
2023-05-03T00:32:02.714Z,4.25
2023-05-03T00:34:32.243Z,4.90
2023-05-03T00:37:01.779Z,4.25
2023-05-03T00:39:32.206Z,4.78
2023-05-03T00:42:02.600Z,4.88
2023-05-03T00:44:32.240Z,4.65
2023-05-03T00:47:04.821Z,4.40
2023-05-03T00:49:34.471Z,4.10
2023-05-03T00:52:04.510Z,4.22
2023-05-03T00:54:35.535Z,4.80
2023-05-03T00:57:07.324Z,4.38
2023-05-03T00:59:37.204Z,4.90
2023-05-03T01:02:09.402Z,4.78
2023-05-03T01:04:42.927Z,4.68
2023-05-03T01:07:24.288Z,4.20
2023-05-03T01:10:02.866Z,4.45
2023-05-03T01:12:43.340Z,4.20
2023-05-03T01:15:19.943Z,4.55
2023-05-03T01:17:54.673Z,5.07
2023-05-03T01:20:28.510Z,4.32
2023-05-03T01:23:08.193Z,4.47
2023-05-03T01:25:40.355Z,4.43
2023-05-03T01:28:09.907Z,4.65
2023-05-03T01:30:42.002Z,4.43
2023-05-03T01:33:16.689Z,4.22
2023-05-03T01:35:55.498Z,4.40
2023-05-03T01:38:26.184Z,5.00
2023-05-03T01:41:02.938Z,4.45
2023-05-03T01:43:33.510Z,4.60
2023-05-03T01:46:03.289Z,4.38
2023-05-03T01:48:32.967Z,4.20
2023-05-03T01:51:02.558Z,4.10
2023-05-03T01:53:32.247Z,4.00
2023-05-03T01:56:04.384Z,3.95
2023-05-03T01:58:33.950Z,4.20
2023-05-03T02:01:03.477Z,3.90
2023-05-03T02:03:33.105Z,4.15
2023-05-03T02:06:02.676Z,4.32
2023-05-03T02:08:32.251Z,3.90
2023-05-03T02:11:04.348Z,4.47
2023-05-03T02:13:33.864Z,4.13
2023-05-03T02:16:03.403Z,4.22
2023-05-03T02:18:33.994Z,3.80
2023-05-03T02:21:03.549Z,5.28
2023-05-03T02:23:33.358Z,4.40
2023-05-03T02:26:05.640Z,4.22
2023-05-03T02:28:35.437Z,4.75
2023-05-03T02:31:06.440Z,4.40
2023-05-03T02:33:36.152Z,3.38
2023-05-03T02:36:05.821Z,4.22
2023-05-03T02:38:35.359Z,4.18
2023-05-03T02:43:41.856Z,4.50
2023-05-03T02:46:11.427Z,4.40
2023-05-03T02:48:41.009Z,4.10
2023-05-03T02:51:10.545Z,4.50
2023-05-03T02:53:40.080Z,4.22
2023-05-03T02:56:12.655Z,4.88
2023-05-03T02:58:42.159Z,4.60
2023-05-03T03:01:11.833Z,5.20
2023-05-03T03:03:41.436Z,4.57
2023-05-03T03:06:11.143Z,4.70
2023-05-03T03:08:40.829Z,4.63
2023-05-03T03:11:13.144Z,4.63
2023-05-03T03:13:42.698Z,4.95
2023-05-03T03:16:13.723Z,5.13
2023-05-03T03:18:43.384Z,4.60
2023-05-03T03:21:12.933Z,4.72
2023-05-03T03:23:42.686Z,4.97
2023-05-03T03:26:14.770Z,5.35
2023-05-03T03:28:44.293Z,4.63
2023-05-03T03:31:14.045Z,4.88
2023-05-03T03:33:43.624Z,4.65
2023-05-03T03:36:13.439Z,5.47
2023-05-03T03:38:43.512Z,4.95
2023-05-03T03:41:15.917Z,4.47
2023-05-03T03:43:45.839Z,4.78
2023-05-03T03:46:15.522Z,5.55
2023-05-03T03:48:45.063Z,4.45
2023-05-03T03:51:14.605Z,4.78
2023-05-03T03:53:44.147Z,5.10
2023-05-03T03:56:16.272Z,4.82
2023-05-03T03:58:45.838Z,5.07
2023-05-03T04:01:15.594Z,5.03
2023-05-03T04:03:47.900Z,5.00
2023-05-03T04:06:17.626Z,4.70
2023-05-03T04:08:47.126Z,4.45
2023-05-03T04:11:19.230Z,4.53
2023-05-03T04:13:48.765Z,4.53
2023-05-03T04:16:18.834Z,4.18
2023-05-03T04:18:48.384Z,4.40
2023-05-03T04:21:18.695Z,4.00
2023-05-03T04:23:48.259Z,4.05
2023-05-03T04:26:31.074Z,3.75
2023-05-03T04:29:01.216Z,3.85
2023-05-03T04:31:33.520Z,4.10
2023-05-03T04:34:03.106Z,4.00
2023-05-03T04:36:33.082Z,3.78
2023-05-03T04:39:02.622Z,4.43
2023-05-03T04:41:34.713Z,4.05
2023-05-03T04:44:05.666Z,3.88
2023-05-03T04:46:35.408Z,3.88
2023-05-03T04:49:05.625Z,3.78
2023-05-03T04:51:35.189Z,4.10
2023-05-03T04:54:04.861Z,3.63
2023-05-03T04:56:36.945Z,3.55
2023-05-03T04:59:07.691Z,3.90
2023-05-03T05:01:37.245Z,3.80
2023-05-03T05:04:07.137Z,3.72
2023-05-03T05:06:36.717Z,3.90
2023-05-03T05:09:07.547Z,3.80
2023-05-03T05:11:39.752Z,4.28
2023-05-03T05:14:09.219Z,4.15
2023-05-03T05:16:38.812Z,4.00
2023-05-03T05:19:08.432Z,4.03
2023-05-03T05:21:38.002Z,5.50
2023-05-03T05:24:07.899Z,5.07
2023-05-03T05:26:40.049Z,4.07
2023-05-03T05:29:09.601Z,4.10
2023-05-03T05:31:39.301Z,4.40
2023-05-03T05:34:08.913Z,4.43
2023-05-03T05:36:38.562Z,4.20
2023-05-03T05:39:08.197Z,5.38
2023-05-03T05:41:40.665Z,4.75
2023-05-03T05:44:10.202Z,4.50
2023-05-03T05:46:39.825Z,4.40
2023-05-03T05:49:09.621Z,4.10
2023-05-03T05:54:13.819Z,4.30
2023-05-03T05:56:45.976Z,4.22
2023-05-03T05:59:16.241Z,4.82
2023-05-03T06:01:46.565Z,4.75
2023-05-03T06:04:16.742Z,4.38
2023-05-03T06:06:46.314Z,4.25
2023-05-03T06:09:24.099Z,4.13
2023-05-03T06:11:57.042Z,4.55
2023-05-03T06:14:26.608Z,4.40
2023-05-03T06:16:56.266Z,4.18
2023-05-03T06:19:25.860Z,3.90
2023-05-03T06:21:55.386Z,4.82
2023-05-03T06:24:24.928Z,4.60
2023-05-03T06:26:58.065Z,4.28
2023-05-03T06:29:28.577Z,4.55
2023-05-03T06:31:58.134Z,4.20
2023-05-03T06:34:28.585Z,4.25
2023-05-03T06:36:58.157Z,4.43
2023-05-03T06:39:28.531Z,4.57
2023-05-03T06:42:01.281Z,4.28
2023-05-03T06:44:30.852Z,3.80
2023-05-03T06:47:00.472Z,4.35
2023-05-03T06:49:29.993Z,3.95
2023-05-03T06:51:59.493Z,3.95
2023-05-03T06:54:29.026Z,4.20
2023-05-03T06:57:01.953Z,3.92
2023-05-03T06:59:31.442Z,3.97
2023-05-03T07:02:01.029Z,4.20
2023-05-03T07:04:30.595Z,4.10
2023-05-03T07:07:00.142Z,3.95
2023-05-03T07:09:42.001Z,3.42
2023-05-03T07:12:15.124Z,3.25
2023-05-03T07:14:44.969Z,3.45
2023-05-03T07:17:14.538Z,3.20
2023-05-03T07:19:44.062Z,3.63
2023-05-03T07:22:15.105Z,3.67
2023-05-03T07:24:44.738Z,3.30
2023-05-03T07:27:17.883Z,3.38
2023-05-03T07:29:47.404Z,3.40
2023-05-03T07:32:17.069Z,2.97
2023-05-03T07:34:46.611Z,3.63
2023-05-03T07:37:16.470Z,3.30
2023-05-03T07:39:45.965Z,3.05
2023-05-03T07:42:18.102Z,3.35
2023-05-03T07:44:47.634Z,2.50
2023-05-03T07:47:17.299Z,2.65
2023-05-03T07:49:48.060Z,2.78
2023-05-03T07:52:17.549Z,2.92
2023-05-03T07:54:47.177Z,2.90
2023-05-03T07:59:53.918Z,2.85
2023-05-03T08:02:23.569Z,2.70
2023-05-03T08:04:54.944Z,2.40
2023-05-03T08:07:24.683Z,2.63
2023-05-03T08:09:54.348Z,2.85
2023-05-03T08:12:30.742Z,2.70
2023-05-03T08:15:01.048Z,3.00
2023-05-03T08:17:30.737Z,3.35
2023-05-03T08:20:00.285Z,3.22
2023-05-03T08:22:30.733Z,3.20
2023-05-03T08:27:38.512Z,2.70
2023-05-03T08:30:10.907Z,3.00
2023-05-03T08:32:40.517Z,3.20
2023-05-03T08:35:11.138Z,3.47
2023-05-03T08:37:41.879Z,3.10
2023-05-03T08:40:14.180Z,2.90
2023-05-03T08:42:48.197Z,3.00
2023-05-03T08:45:18.781Z,3.13
2023-05-03T08:47:48.610Z,3.40
2023-05-03T08:50:18.883Z,2.90
2023-05-03T08:52:48.407Z,3.03
2023-05-03T08:55:18.272Z,3.10
2023-05-03T08:57:50.445Z,2.95
2023-05-03T09:00:21.019Z,3.60
2023-05-03T09:02:51.922Z,3.40
2023-05-03T09:05:35.762Z,3.40
2023-05-03T09:08:07.310Z,3.30
2023-05-03T09:10:40.771Z,3.30
2023-05-03T09:13:13.574Z,3.03
2023-05-03T09:15:45.445Z,3.38
2023-05-03T09:18:18.348Z,3.15
2023-05-03T09:20:52.642Z,3.17
2023-05-03T09:23:32.031Z,3.38
2023-05-03T09:26:02.656Z,3.20
2023-05-03T09:28:44.260Z,3.20
2023-05-03T09:31:13.783Z,3.03
2023-05-03T09:33:43.291Z,3.33
2023-05-03T09:36:13.264Z,3.38
2023-05-03T09:38:42.970Z,3.28
2023-05-03T09:41:13.430Z,3.55
2023-05-03T09:43:56.275Z,3.10
2023-05-03T09:46:29.464Z,3.85
2023-05-03T09:48:59.770Z,3.10
2023-05-03T09:51:32.067Z,3.40
2023-05-03T09:54:02.208Z,3.15
2023-05-03T09:56:32.880Z,3.45
2023-05-03T09:59:06.977Z,3.80
2023-05-03T10:01:38.338Z,3.45
2023-05-03T10:04:09.497Z,3.10
2023-05-03T10:06:44.062Z,3.15
2023-05-03T10:09:17.172Z,3.45
2023-05-03T10:11:53.033Z,3.17
2023-05-03T10:17:00.639Z,3.05
2023-05-03T10:19:37.124Z,3.05
2023-05-03T10:22:08.379Z,3.40
2023-05-03T10:24:38.957Z,3.55
2023-05-03T10:27:10.693Z,3.30
2023-05-03T10:30:00.558Z,3.25
2023-05-03T10:32:39.861Z,3.17
2023-05-03T10:35:12.269Z,3.50
2023-05-03T10:37:46.711Z,3.17
2023-05-03T10:40:18.367Z,3.72
2023-05-03T10:42:49.516Z,3.30
2023-05-03T10:45:30.279Z,3.38
2023-05-03T10:48:22.850Z,3.83
2023-05-03T10:50:53.171Z,2.90
2023-05-03T10:53:40.290Z,3.60
2023-05-03T10:56:11.652Z,3.47
2023-05-03T10:58:45.432Z,3.60
2023-05-03T11:01:19.715Z,3.45
2023-05-03T11:03:56.556Z,3.40
2023-05-03T11:06:37.132Z,3.55
2023-05-03T11:09:08.689Z,3.17
2023-05-03T11:11:39.980Z,3.42
2023-05-03T11:14:10.072Z,3.50
2023-05-03T11:16:48.220Z,3.50
2023-05-03T11:19:18.449Z,3.30
2023-05-03T11:21:48.591Z,2.95
2023-05-03T11:24:18.422Z,2.90
2023-05-03T11:26:49.006Z,3.30
2023-05-03T11:29:18.941Z,3.10
2023-05-03T11:31:51.122Z,3.00
2023-05-03T11:34:21.222Z,3.10
2023-05-03T11:36:51.286Z,3.33
2023-05-03T11:39:21.079Z,3.15
2023-05-03T11:42:04.976Z,3.30
2023-05-03T11:44:34.685Z,2.90
2023-05-03T11:47:07.755Z,2.67
2023-05-03T11:49:37.551Z,3.38
2023-05-03T11:52:07.636Z,3.92
2023-05-03T11:54:39.298Z,3.42
2023-05-03T11:57:16.314Z,3.40
2023-05-03T11:59:46.435Z,3.13
2023-05-03T12:02:19.382Z,3.67
2023-05-03T12:04:49.188Z,3.40
2023-05-03T12:07:21.302Z,3.05
2023-05-03T12:10:09.507Z,3.78
2023-05-03T12:12:46.806Z,2.92
2023-05-03T12:15:33.991Z,3.33
2023-05-03T12:18:09.817Z,3.17
2023-05-03T12:21:29.088Z,3.60
2023-05-03T12:23:34.219Z,3.17
2023-05-03T12:26:05.322Z,3.30
2023-05-03T12:28:35.597Z,3.20
2023-05-03T12:31:05.598Z,3.67
2023-05-03T12:33:38.903Z,3.20
2023-05-03T12:36:10.045Z,3.33
2023-05-03T12:38:43.235Z,3.20
2023-05-03T12:41:15.951Z,3.28
2023-05-03T12:43:52.661Z,3.05
2023-05-03T12:46:32.860Z,3.28
2023-05-03T12:49:08.572Z,3.78
2023-05-03T12:51:42.234Z,3.17
2023-05-03T12:54:12.333Z,3.15
2023-05-03T12:56:43.394Z,3.63
2023-05-03T13:07:00.231Z,3.43
2023-05-03T13:10:12.370Z,2.90
2023-05-03T13:12:21.868Z,3.17
2023-05-03T13:14:51.616Z,2.55
2023-05-03T13:17:23.600Z,3.38
2023-05-03T13:19:56.120Z,3.30
2023-05-03T13:22:26.023Z,3.45
2023-05-03T13:24:56.260Z,3.30
2023-05-03T13:27:25.823Z,3.20
2023-05-03T13:30:05.144Z,2.80
2023-05-03T13:32:34.910Z,3.70
2023-05-03T13:35:08.638Z,3.13
2023-05-03T13:37:38.836Z,3.15
2023-05-03T13:40:09.888Z,3.03
2023-05-03T13:42:39.409Z,3.00
2023-05-03T13:45:10.129Z,3.47
2023-05-03T13:48:05.001Z,3.38
2023-05-03T13:50:32.156Z,3.58
2023-05-03T13:53:02.059Z,3.30
2023-05-03T13:55:31.696Z,3.15
2023-05-03T13:58:01.196Z,2.85
2023-05-03T14:00:32.357Z,3.20
2023-05-03T14:03:02.710Z,3.22
2023-05-03T14:05:34.924Z,3.22
2023-05-03T14:08:05.310Z,3.55
2023-05-03T14:10:37.688Z,3.60
2023-05-03T14:13:08.285Z,3.28
2023-05-03T14:15:41.689Z,3.60
2023-05-03T14:18:11.481Z,3.10
2023-05-03T14:20:43.786Z,3.25
2023-05-03T14:23:13.386Z,3.20
2023-05-03T14:25:43.098Z,3.42
2023-05-03T14:28:12.652Z,3.40
2023-05-03T14:30:42.192Z,3.63
2023-05-03T14:33:12.594Z,3.15
2023-05-03T14:35:45.804Z,3.45
2023-05-03T14:38:15.440Z,3.13
2023-05-03T14:40:46.001Z,3.30
2023-05-03T14:43:15.656Z,3.20
2023-05-03T14:45:45.423Z,3.25
2023-05-03T14:48:14.987Z,2.97
2023-05-03T14:50:50.836Z,3.50
2023-05-03T14:55:50.163Z,3.22
2023-05-03T14:58:20.132Z,3.10
2023-05-03T15:00:49.699Z,3.38
2023-05-03T15:03:19.323Z,2.80
2023-05-03T15:05:52.771Z,3.47
2023-05-03T15:08:23.257Z,3.30
2023-05-03T15:10:52.785Z,3.65
2023-05-03T15:13:22.530Z,3.22
2023-05-03T15:15:52.322Z,3.10
2023-05-03T15:18:23.225Z,3.33
2023-05-03T15:20:55.479Z,3.65
2023-05-03T15:23:25.028Z,3.22
2023-05-03T15:25:54.559Z,3.50
2023-05-03T15:28:24.071Z,3.17
2023-05-03T15:30:53.709Z,3.05
2023-05-03T15:33:23.368Z,2.95
2023-05-03T15:35:55.578Z,3.60
2023-05-03T15:38:25.109Z,3.53
2023-05-03T15:40:54.672Z,3.28
2023-05-03T15:43:24.260Z,3.28
2023-05-03T15:45:54.121Z,3.33
2023-05-03T15:48:23.700Z,3.20
2023-05-03T15:50:55.863Z,3.38
2023-05-03T15:53:26.135Z,2.75
2023-05-03T15:55:57.020Z,3.47
2023-05-03T15:58:26.637Z,3.25
2023-05-03T16:00:57.088Z,2.97
2023-05-03T16:03:28.820Z,3.70
2023-05-03T16:06:01.216Z,3.20
2023-05-03T16:08:31.859Z,3.30
2023-05-03T16:11:01.462Z,3.47
2023-05-03T16:13:31.321Z,3.10
2023-05-03T16:16:02.775Z,3.10
2023-05-03T16:18:32.891Z,2.95
2023-05-03T16:21:06.215Z,2.83
2023-05-03T16:23:35.941Z,3.20
2023-05-03T16:26:14.465Z,3.03
2023-05-03T16:28:44.159Z,3.60
2023-05-03T16:31:13.946Z,3.47
2023-05-03T16:33:43.536Z,3.45
2023-05-03T16:36:15.700Z,3.17
2023-05-03T16:38:45.450Z,3.20
2023-05-03T16:41:15.188Z,3.15
2023-05-03T16:43:44.764Z,3.40
2023-05-03T16:46:14.375Z,3.20
2023-05-03T16:48:43.975Z,3.15
2023-05-03T16:51:16.208Z,3.28
2023-05-03T16:53:45.748Z,3.30
2023-05-03T16:56:15.444Z,3.30
2023-05-03T16:58:44.983Z,3.50
2023-05-03T17:01:14.809Z,3.10
2023-05-03T17:03:44.958Z,3.20
2023-05-03T17:06:18.438Z,3.65
2023-05-03T17:08:48.389Z,4.45
2023-05-03T17:11:18.033Z,3.25
2023-05-03T17:13:47.680Z,3.35
2023-05-03T17:16:18.149Z,3.50
2023-05-03T17:18:47.981Z,3.40
2023-05-03T17:21:20.220Z,3.30
2023-05-03T17:23:49.806Z,3.17
2023-05-03T17:26:21.549Z,2.83
2023-05-03T17:28:51.190Z,3.10
2023-05-03T17:31:20.790Z,3.03
2023-05-03T17:33:50.389Z,3.55
2023-05-03T17:36:23.006Z,3.15
2023-05-03T17:38:52.692Z,3.80
2023-05-03T17:41:22.214Z,3.20
2023-05-03T17:43:51.800Z,3.22
2023-05-03T17:46:21.417Z,3.00
2023-05-03T17:48:52.304Z,3.25
2023-05-03T17:51:24.519Z,3.70
2023-05-03T17:53:54.944Z,3.30
2023-05-03T17:56:24.926Z,3.70
2023-05-03T17:58:54.599Z,3.15
2023-05-03T18:01:24.315Z,3.60
2023-05-03T18:03:54.113Z,3.60
2023-05-03T18:06:26.945Z,4.13
2023-05-03T18:08:56.670Z,4.40
2023-05-03T18:11:26.246Z,4.75
2023-05-03T18:13:56.112Z,4.50
2023-05-03T18:16:25.699Z,3.90
2023-05-03T18:18:55.844Z,3.72
2023-05-03T18:21:28.091Z,3.50
2023-05-03T18:23:57.663Z,3.60
2023-05-03T18:26:27.859Z,3.80
2023-05-03T18:28:57.445Z,3.60
2023-05-03T18:31:27.509Z,4.28
2023-05-03T18:33:57.080Z,3.75
2023-05-03T18:36:29.298Z,4.53
2023-05-03T18:38:58.870Z,4.03
2023-05-03T18:41:28.425Z,6.70
2023-05-03T18:43:58.721Z,6.57
2023-05-03T18:46:28.344Z,8.00
2023-05-03T18:48:57.925Z,6.50
2023-05-03T18:51:30.142Z,5.43
2023-05-03T18:53:59.972Z,5.03
2023-05-03T18:56:31.086Z,5.15
2023-05-03T18:59:00.954Z,5.25
2023-05-03T19:01:30.789Z,4.70
2023-05-03T19:04:00.531Z,4.35
2023-05-03T19:06:32.760Z,4.55
2023-05-03T19:09:02.298Z,5.10
2023-05-03T19:11:31.884Z,4.45
2023-05-03T19:14:01.524Z,4.55
2023-05-03T19:16:32.474Z,4.93
2023-05-03T19:19:02.399Z,4.63
2023-05-03T19:21:37.863Z,4.40
2023-05-03T19:24:11.638Z,5.05
2023-05-03T19:26:41.303Z,4.78
2023-05-03T19:29:10.972Z,4.45
2023-05-03T19:31:40.561Z,5.10
2023-05-03T19:34:11.502Z,5.20
2023-05-03T19:36:44.361Z,5.13
2023-05-03T19:39:14.193Z,5.35
2023-05-03T19:41:43.799Z,6.20
2023-05-03T19:44:13.383Z,7.85
2023-05-03T19:46:43.037Z,6.97
2023-05-03T19:49:12.831Z,6.78
2023-05-03T19:51:45.107Z,8.98
2023-05-03T19:54:14.622Z,9.05
2023-05-03T19:56:44.183Z,6.95
2023-05-03T19:59:13.730Z,7.22
2023-05-03T20:01:45.282Z,7.05
2023-05-03T20:04:15.058Z,8.63
2023-05-03T20:06:47.563Z,8.30
2023-05-03T20:09:17.180Z,8.82
2023-05-03T20:11:46.738Z,7.65
2023-05-03T20:14:16.721Z,9.10
2023-05-03T20:16:46.267Z,7.85
2023-05-03T20:19:16.075Z,7.68
2023-05-03T20:21:48.653Z,7.35
2023-05-03T20:24:18.201Z,9.10
2023-05-03T20:26:49.093Z,7.10
2023-05-03T20:29:18.865Z,7.40
2023-05-03T20:31:48.769Z,7.28
2023-05-03T20:34:18.368Z,7.47
2023-05-03T20:36:50.505Z,7.63
2023-05-03T20:39:20.046Z,7.88
2023-05-03T20:41:49.639Z,7.15
2023-05-03T20:44:19.225Z,6.70
2023-05-03T20:46:48.820Z,7.43
2023-05-03T20:49:18.659Z,7.75
2023-05-03T20:51:51.773Z,8.13
2023-05-03T20:54:21.286Z,8.80
2023-05-03T20:56:51.047Z,8.48
2023-05-03T20:59:20.585Z,9.02
2023-05-03T21:01:50.146Z,9.32
2023-05-03T21:04:19.989Z,8.48
2023-05-03T21:06:52.106Z,9.27
2023-05-03T21:09:21.653Z,10.25
2023-05-03T21:11:51.170Z,10.88
2023-05-03T21:14:21.286Z,8.75
2023-05-03T21:16:50.891Z,7.82
2023-05-03T21:19:20.406Z,7.25
2023-05-03T21:21:52.552Z,9.75
2023-05-03T21:24:25.930Z,8.10
2023-05-03T21:26:55.461Z,8.77
2023-05-03T21:29:24.976Z,10.77
2023-05-03T21:31:54.710Z,8.88
2023-05-03T21:34:25.380Z,9.70
2023-05-03T21:36:57.512Z,9.63
2023-05-03T21:39:27.149Z,8.02
2023-05-03T21:41:56.710Z,9.35
2023-05-03T21:44:26.268Z,7.72
2023-05-03T21:46:55.857Z,7.93
2023-05-03T21:49:25.609Z,7.63
2023-05-03T21:51:57.823Z,7.65
2023-05-03T21:54:27.374Z,7.65
2023-05-03T21:59:32.710Z,9.82
2023-05-03T22:02:02.249Z,10.05
2023-05-03T22:04:31.923Z,10.73
2023-05-03T22:07:04.109Z,9.80
2023-05-03T22:09:33.649Z,10.32
2023-05-03T22:12:19.149Z,10.80
2023-05-03T22:14:53.009Z,9.52
2023-05-03T22:17:23.136Z,9.10
2023-05-03T22:19:52.702Z,10.27
2023-05-03T22:22:28.623Z,9.50
2023-05-03T22:24:58.447Z,8.00
2023-05-03T22:27:27.964Z,9.65
2023-05-03T22:29:57.829Z,9.35
2023-05-03T22:32:27.460Z,8.38
2023-05-03T22:34:57.118Z,9.10
2023-05-03T22:37:29.180Z,10.50
2023-05-03T22:39:58.660Z,12.02
2023-05-03T22:42:28.118Z,11.68
2023-05-03T22:44:57.637Z,11.38
2023-05-03T22:47:27.260Z,11.13
2023-05-03T22:49:57.000Z,11.20
2023-05-03T22:52:29.179Z,11.00
2023-05-03T22:55:00.671Z,10.82
2023-05-03T22:57:30.154Z,10.32
2023-05-03T22:59:59.980Z,10.48
2023-05-03T23:02:29.571Z,9.82
2023-05-03T23:04:59.180Z,11.48
2023-05-03T23:07:31.784Z,10.10
2023-05-03T23:10:06.378Z,11.20
2023-05-03T23:12:36.505Z,11.55
2023-05-03T23:15:06.226Z,11.63
2023-05-03T23:17:35.776Z,10.70
2023-05-03T23:20:05.932Z,10.38
2023-05-03T23:22:39.522Z,11.02
2023-05-03T23:25:09.839Z,15.70
2023-05-03T23:27:39.388Z,15.10
2023-05-03T23:30:10.941Z,13.40
2023-05-03T23:32:41.033Z,13.10
2023-05-03T23:35:11.355Z,15.55
2023-05-03T23:37:43.491Z,12.27
2023-05-03T23:40:13.649Z,11.48
2023-05-03T23:42:43.882Z,11.30
2023-05-03T23:45:14.503Z,10.00
2023-05-03T23:47:44.155Z,11.88
2023-05-03T23:50:14.204Z,10.60
2023-05-03T23:52:46.998Z,10.52
2023-05-03T23:55:16.510Z,9.77
2023-05-03T23:57:46.092Z,11.02
